Time;durP1;ratioP1;P1;durP2;ratioP2;P2;SDS_P1;SDS_P2;PMS_P1;PMS_P2;Temp;Humidity;BMP_temperature;BMP_pressure;BME280_temperature;BME280_humidity;BME280_pressure;Samples;Min_cycle;Max_cycle;Signal;HPM_P1;HPM_P2
2023/03/20 00:00:30;;;;;;;6.40;5.80;;;;;;;10.63;100.00;98304.53;5054785;28;20040;-88
2023/03/20 00:02:56;;;;;;;7.57;5.97;;;;;;;10.56;100.00;98298.44;5074722;28;20091;-89
2023/03/20 00:05:23;;;;;;;6.18;5.57;;;;;;;10.54;100.00;98311.75;5078217;28;20396;-87
2023/03/20 00:07:50;;;;;;;6.75;5.60;;;;;;;10.60;100.00;98310.97;5107785;28;20032;-88
2023/03/20 00:10:18;;;;;;;6.20;5.60;;;;;;;10.55;100.00;98302.06;5078785;28;20033;-88
2023/03/20 00:12:47;;;;;;;6.00;5.40;;;;;;;10.50;100.00;98278.25;5054044;28;20101;-88
2023/03/20 00:15:29;;;;;;;7.20;5.20;;;;;;;10.55;100.00;98296.81;5070760;28;20051;-86
2023/03/20 00:17:56;;;;;;;6.97;5.38;;;;;;;10.62;100.00;98303.72;5077730;28;20396;-89
2023/03/20 00:20:22;;;;;;;5.53;5.00;;;;;;;10.43;100.00;98289.50;5052305;28;20033;-88
2023/03/20 00:22:48;;;;;;;5.80;5.30;;;;;;;10.47;100.00;98278.63;5051834;28;20040;-88
2023/03/20 00:25:22;;;;;;;6.22;5.00;;;;;;;10.58;100.00;98296.44;5077367;28;20477;-88
2023/03/20 00:27:48;;;;;;;5.25;4.72;;;;;;;10.65;100.00;98313.00;5092758;28;20032;-88
2023/03/20 00:30:21;;;;;;;6.35;5.32;;;;;;;10.67;100.00;98306.56;5088140;28;20035;-87
2023/03/20 00:32:49;;;;;;;6.22;5.57;;;;;;;10.48;100.00;98285.47;5070791;28;20495;-86
2023/03/20 00:35:24;;;;;;;6.45;5.47;;;;;;;10.59;100.00;98287.56;5066884;28;20049;-87
2023/03/20 00:37:51;;;;;;;7.25;5.82;;;;;;;10.48;100.00;98286.28;5067328;28;20082;-86
2023/03/20 00:40:18;;;;;;;7.10;5.68;;;;;;;10.64;100.00;98300.91;5074282;28;20496;-87
2023/03/20 00:42:48;;;;;;;6.80;5.53;;;;;;;10.44;100.00;98301.63;5076747;28;20392;-87
2023/03/20 00:45:17;;;;;;;6.70;5.55;;;;;;;10.33;100.00;98294.28;5099132;28;20076;-87
2023/03/20 00:47:44;;;;;;;5.93;5.30;;;;;;;10.31;100.00;98290.22;5079954;28;20054;-88
2023/03/20 00:50:17;;;;;;;5.75;5.25;;;;;;;10.40;100.00;98283.84;5071361;28;20044;-88
2023/03/20 00:52:44;;;;;;;5.90;5.30;;;;;;;10.45;100.00;98292.75;5070089;28;20043;-89
2023/03/20 00:55:10;;;;;;;6.38;5.30;;;;;;;10.36;100.00;98286.03;5085301;28;20048;-88
2023/03/20 00:57:50;;;;;;;7.15;5.05;;;;;;;10.51;100.00;98303.47;5091385;28;20032;-88
2023/03/20 01:00:22;;;;;;;5.25;4.72;;;;;;;10.38;100.00;98284.03;5063923;28;20732;-87
2023/03/20 01:02:51;;;;;;;5.57;5.07;;;;;;;10.52;100.00;98297.22;5067227;28;20044;-88
2023/03/20 01:05:17;;;;;;;5.93;5.32;;;;;;;10.33;100.00;98273.31;5071826;28;20043;-87
2023/03/20 01:07:44;;;;;;;5.78;5.18;;;;;;;10.35;100.00;98268.69;5086912;28;20052;-88
2023/03/20 01:10:11;;;;;;;7.35;5.47;;;;;;;10.49;100.00;98287.09;5074114;28;20553;-88
2023/03/20 01:12:41;;;;;;;5.43;4.93;;;;;;;10.38;100.00;98264.88;5070238;28;20076;-87
2023/03/20 01:15:24;;;;;;;6.55;5.72;;;;;;;10.50;100.00;98278.25;5070631;28;20041;-88
2023/03/20 01:17:51;;;;;;;9.25;6.38;;;;;;;10.58;100.00;98293.81;5070582;28;20048;-88
2023/03/20 01:20:27;;;;;;;6.72;6.13;;;;;;;10.60;100.00;98294.41;5069761;28;21047;-88
2023/03/20 01:22:53;;;;;;;7.97;6.13;;;;;;;10.49;100.00;98271.38;5070378;28;20044;-88
2023/03/20 01:25:20;;;;;;;7.65;6.80;;;;;;;10.58;100.00;98293.81;5070350;28;20032;-87
2023/03/20 01:27:50;;;;;;;8.65;6.72;;;;;;;10.56;100.00;98298.44;5074249;28;20028;-88
2023/03/20 01:30:20;;;;;;;8.77;6.90;;;;;;;10.34;100.00;98272.31;5100203;28;20032;-87
2023/03/20 01:32:47;;;;;;;7.05;6.13;;;;;;;10.34;100.00;98285.41;5071058;28;20033;-88
2023/03/20 01:35:20;;;;;;;7.93;6.80;;;;;;;10.49;100.00;98292.34;5075800;28;20037;-87
2023/03/20 01:37:47;;;;;;;7.95;6.47;;;;;;;10.54;100.00;98308.31;5073867;28;20488;-88
2023/03/20 01:40:42;;;;;;;8.38;6.38;;;;;;;10.58;100.00;98317.41;5066378;28;20539;-88
2023/03/20 01:43:15;;;;;;;8.25;6.80;;;;;;;10.54;100.00;98303.06;5095120;28;20037;-88
2023/03/20 01:45:53;;;;;;;8.23;6.97;;;;;;;10.53;100.00;98311.94;5073754;28;20049;-88
2023/03/20 01:48:20;;;;;;;8.07;7.28;;;;;;;10.51;100.00;98316.56;5074280;28;20041;-87
2023/03/20 01:50:47;;;;;;;8.32;6.65;;;;;;;10.45;100.00;98297.19;5065483;28;20052;-88
2023/03/20 01:53:17;;;;;;;8.32;6.85;;;;;;;10.62;100.00;98313.41;5054010;28;20604;-87
2023/03/20 01:55:45;;;;;;;9.32;7.47;;;;;;;10.48;100.00;98295.97;5054120;28;20175;-87
2023/03/20 01:58:22;;;;;;;7.68;6.82;;;;;;;10.57;100.00;98314.00;5056847;28;20076;-87
2023/03/20 02:00:48;;;;;;;11.60;6.88;;;;;;;10.50;100.00;98309.72;5090215;28;20067;-88
2023/03/20 02:03:15;;;;;;;8.13;7.30;;;;;;;10.59;100.00;98308.53;5073478;28;20549;-88
2023/03/20 02:05:43;;;;;;;7.88;7.03;;;;;;;10.42;100.00;98302.78;5073260;28;20051;-87
2023/03/20 02:08:16;;;;;;;9.02;6.80;;;;;;;10.55;100.00;98315.16;5076555;28;20044;-87
2023/03/20 02:10:45;;;;;;;8.48;7.00;;;;;;;10.60;100.00;98325.88;5078684;28;20051;-88
2023/03/20 02:13:14;;;;;;;8.07;6.68;;;;;;;10.54;100.00;98319.59;5074316;28;20071;-88
2023/03/20 02:15:55;;;;;;;8.45;6.45;;;;;;;10.61;100.00;98319.63;5054298;28;20037;-87
2023/03/20 02:18:22;;;;;;;9.18;7.03;;;;;;;10.52;100.00;98318.19;5053294;28;20055;-87
2023/03/20 02:21:18;;;;;;;7.35;6.65;;;;;;;10.64;100.00;98327.13;5057157;28;20020;-87
2023/03/20 02:24:08;;;;;;;8.60;6.85;;;;;;;10.55;100.00;98323.84;5056998;28;20028;-87
2023/03/20 02:26:53;;;;;;;8.98;6.90;;;;;;;10.51;100.00;98327.88;5073218;28;20040;-87
2023/03/20 02:29:41;;;;;;;8.00;6.82;;;;;;;10.58;100.00;98322.66;5055870;28;20063;-87
2023/03/20 02:32:10;;;;;;;7.95;7.15;;;;;;;10.60;100.00;98331.94;5067545;28;20047;-87
2023/03/20 02:34:51;;;;;;;8.20;7.40;;;;;;;10.63;100.00;98333.38;5089576;28;20033;-87
2023/03/20 02:37:26;;;;;;;;;;;;;;;10.66;100.00;98330.34;5083713;28;20089;-87
2023/03/20 02:40:24;;;;;;;8.00;7.20;;;;;;;10.49;100.00;98323.81;5076813;28;19907;-87
2023/03/20 02:43:09;;;;;;;9.43;7.65;;;;;;;10.46;100.00;98325.00;5039233;28;20048;-87
2023/03/20 02:45:55;;;;;;;8.18;7.38;;;;;;;10.50;100.00;98321.00;5067733;28;20095;-88
2023/03/20 02:48:27;;;;;;;8.77;6.85;;;;;;;10.59;100.00;98327.72;5062542;28;20040;-88
2023/03/20 02:51:00;;;;;;;8.48;7.28;;;;;;;10.59;100.00;98322.47;5050891;28;20126;-87
2023/03/20 02:53:47;;;;;;;7.78;6.50;;;;;;;10.61;100.00;98317.00;5054147;28;20182;-87
2023/03/20 02:56:19;;;;;;;7.80;7.07;;;;;;;10.60;100.00;98318.03;5087889;28;20410;-87
2023/03/20 02:59:06;;;;;;;9.70;7.53;;;;;;;10.42;100.00;98314.09;5078503;28;20094;-86
2023/03/20 03:01:40;;;;;;;8.45;6.88;;;;;;;10.50;100.00;98315.78;5074772;28;20037;-88
2023/03/20 03:04:10;;;;;;;7.97;7.18;;;;;;;10.48;100.00;98328.25;5071069;28;20041;-88
2023/03/20 03:06:41;;;;;;;8.53;7.63;;;;;;;10.52;100.00;98331.31;5073075;28;20036;-87
2023/03/20 03:09:15;;;;;;;9.27;7.97;;;;;;;10.58;100.00;98330.53;5083611;28;20036;-87
2023/03/20 03:11:54;;;;;;;8.45;7.55;;;;;;;10.49;100.00;98323.81;5071369;28;20052;-89
2023/03/20 03:14:36;;;;;;;9.75;7.47;;;;;;;10.56;100.00;98341.22;5072541;28;20056;-88
2023/03/20 03:17:06;;;;;;;9.05;7.95;;;;;;;10.39;100.00;98327.59;5100753;28;20044;-88
2023/03/20 03:19:35;;;;;;;8.75;7.80;;;;;;;10.56;100.00;98345.66;5074138;28;20049;-88
2023/03/20 03:22:01;;;;;;;9.00;7.45;;;;;;;10.50;100.00;98330.69;5076234;28;20070;-87
2023/03/20 03:24:37;;;;;;;8.65;7.13;;;;;;;10.51;100.00;98332.31;5069891;28;20396;-88
2023/03/20 03:27:16;;;;;;;7.78;6.97;;;;;;;10.56;100.00;98337.78;5071373;28;20044;-87
2023/03/20 03:29:42;;;;;;;8.65;7.25;;;;;;;10.43;100.00;98333.25;5072359;28;20048;-88
2023/03/20 03:32:33;;;;;;;8.95;7.55;;;;;;;10.43;100.00;98349.81;5071244;28;20044;-88
2023/03/20 03:35:02;;;;;;;9.38;7.75;;;;;;;10.26;100.00;98334.59;5104683;28;20068;-87
2023/03/20 03:37:35;;;;;;;8.60;7.22;;;;;;;10.30;100.00;98341.84;5080391;28;20067;-88
2023/03/20 03:40:43;;;;;;;8.77;7.88;;;;;;;10.22;100.00;98344.59;5078280;28;20043;-87
2023/03/20 03:43:25;;;;;;;8.48;7.43;;;;;;;10.14;100.00;98336.88;5067519;28;20041;-88
2023/03/20 03:45:57;;;;;;;8.43;7.50;;;;;;;10.11;100.00;98345.13;5067859;28;20049;-88
2023/03/20 03:48:31;;;;;;;10.95;7.95;;;;;;;9.97;100.00;98336.34;5050409;28;20052;-88
2023/03/20 03:51:03;;;;;;;8.43;7.50;;;;;;;9.80;100.00;98320.09;5058343;28;20045;-86
2023/03/20 03:53:55;;;;;;;8.33;7.40;;;;;;;9.98;100.00;98348.44;5053441;28;20108;-87
2023/03/20 03:56:24;;;;;;;8.77;7.88;;;;;;;9.89;100.00;98339.09;5064874;28;20036;-88
2023/03/20 03:58:55;;;;;;;9.30;7.75;;;;;;;9.76;100.00;98342.41;5069287;28;20083;-88
2023/03/20 04:01:22;;;;;;;9.02;7.40;;;;;;;9.66;100.00;98334.06;5071078;28;20086;-87
2023/03/20 04:03:52;;;;;;;8.55;7.72;;;;;;;9.56;100.00;98325.72;5072132;28;20036;-88
2023/03/20 04:06:19;;;;;;;10.63;7.85;;;;;;;9.47;100.00;98332.06;5071017;28;20044;-88
2023/03/20 04:08:46;;;;;;;9.85;7.85;;;;;;;9.50;100.00;98337.75;5105387;28;20029;-87
2023/03/20 04:11:17;;;;;;;10.63;8.18;;;;;;;9.48;100.00;98352.03;5072640;28;20381;-88
2023/03/20 04:13:48;;;;;;;9.65;7.82;;;;;;;9.32;100.00;98340.78;5078639;28;20379;-88
2023/03/20 04:16:16;;;;;;;10.88;7.55;;;;;;;9.46;100.00;98354.00;5076999;28;20391;-88
2023/03/20 04:18:42;;;;;;;11.65;8.88;;;;;;;9.21;100.00;98343.88;5070962;28;20047;-88
2023/03/20 04:21:09;;;;;;;12.68;8.85;;;;;;;8.97;100.00;98344.19;5079698;28;20483;-88
2023/03/20 04:23:35;;;;;;;11.68;9.38;;;;;;;9.02;100.00;98363.59;5092503;28;20031;-87
2023/03/20 04:26:01;;;;;;;11.80;8.73;;;;;;;8.98;100.00;98357.09;5079825;28;20076;-87
2023/03/20 04:28:27;;;;;;;11.70;9.73;;;;;;;9.00;100.00;98364.78;5071111;28;20028;-87
2023/03/20 04:30:58;;;;;;;11.30;9.13;;;;;;;8.95;100.00;98356.66;5071463;28;20110;-87
2023/03/20 04:33:25;;;;;;;13.68;9.45;;;;;;;8.97;100.00;98349.44;5081412;28;20061;-87
2023/03/20 04:35:51;;;;;;;11.65;9.13;;;;;;;9.04;100.00;98366.00;5061838;28;20439;-87
2023/03/20 04:38:19;;;;;;;11.35;9.43;;;;;;;8.96;100.00;98359.09;5066555;28;20032;-88
2023/03/20 04:40:46;;;;;;;13.95;10.02;;;;;;;8.87;100.00;98343.66;5096574;28;20036;-87
2023/03/20 04:43:13;;;;;;;14.23;10.45;;;;;;;8.71;100.00;98350.72;5074715;28;20121;-88
2023/03/20 04:45:40;;;;;;;14.57;10.13;;;;;;;8.62;100.00;98356.22;5075762;28;20480;-87
2023/03/20 04:48:07;;;;;;;11.93;9.32;;;;;;;8.57;100.00;98360.19;5087149;28;20376;-88
2023/03/20 04:50:37;;;;;;;14.38;10.10;;;;;;;8.62;100.00;98362.25;5068835;28;20070;-88
2023/03/20 04:53:04;;;;;;;12.70;10.23;;;;;;;8.49;100.00;98359.47;5105034;28;20131;-87
2023/03/20 04:55:30;;;;;;;13.77;10.25;;;;;;;8.45;100.00;98352.97;5107034;28;20027;-89
2023/03/20 04:57:56;;;;;;;13.00;9.48;;;;;;;8.43;100.00;98358.38;5076941;28;20033;-88
2023/03/20 05:00:22;;;;;;;14.15;10.52;;;;;;;8.45;100.00;98376.50;5077397;28;20038;-88
2023/03/20 05:02:48;;;;;;;15.95;11.82;;;;;;;8.43;100.00;98368.03;5079767;28;20054;-88
2023/03/20 05:05:14;;;;;;;14.60;10.60;;;;;;;8.39;100.00;98369.38;5070495;28;20041;-88
2023/03/20 05:07:40;;;;;;;15.18;9.77;;;;;;;8.49;100.00;98375.97;5050211;28;20542;-88
2023/03/20 05:10:07;;;;;;;13.20;9.65;;;;;;;8.50;100.00;98361.91;5069810;28;20029;-87
2023/03/20 05:12:33;;;;;;;14.88;10.43;;;;;;;8.51;100.00;98381.00;5063669;28;20056;-87
2023/03/20 05:14:59;;;;;;;16.42;10.60;;;;;;;8.47;100.00;98377.16;5073279;28;20035;-87
2023/03/20 05:17:25;;;;;;;14.88;10.88;;;;;;;8.45;100.00;98373.88;5071551;28;20038;-88
2023/03/20 05:19:51;;;;;;;15.43;9.45;;;;;;;8.64;100.00;98380.41;5069754;28;20053;-88
2023/03/20 05:22:17;;;;;;;16.30;10.20;;;;;;;8.72;100.00;98373.28;5070583;28;20066;-87
2023/03/20 05:24:43;;;;;;;12.60;9.05;;;;;;;8.92;100.00;98385.78;5086454;28;20059;-87
2023/03/20 05:27:10;;;;;;;15.05;9.52;;;;;;;8.96;100.00;98389.69;5076489;28;20048;-88
2023/03/20 05:29:36;;;;;;;15.57;10.00;;;;;;;8.97;100.00;98388.69;5068622;28;20368;-87
2023/03/20 05:32:02;;;;;;;11.80;8.75;;;;;;;9.06;100.00;98384.97;5069959;28;20040;-87
2023/03/20 05:34:28;;;;;;;12.05;9.35;;;;;;;9.21;100.00;98396.22;5070328;28;20519;-87
2023/03/20 05:36:54;;;;;;;13.93;9.43;;;;;;;9.26;100.00;98399.09;5065746;28;20032;-87
2023/03/20 05:39:21;;;;;;;11.93;9.02;;;;;;;9.38;100.00;98405.47;5075048;28;20032;-87
2023/03/20 05:41:47;;;;;;;10.55;9.07;;;;;;;9.46;100.00;98414.22;5069329;28;20415;-87
2023/03/20 05:44:13;;;;;;;10.32;8.52;;;;;;;9.42;100.00;98397.28;5070519;28;20048;-87
2023/03/20 05:46:39;;;;;;;12.77;9.02;;;;;;;9.56;100.00;98430.44;5070157;28;20060;-88
2023/03/20 05:49:05;;;;;;;8.93;8.02;;;;;;;9.40;100.00;98394.81;5073465;28;20044;-87
2023/03/20 05:51:31;;;;;;;8.80;7.80;;;;;;;9.55;100.00;98416.56;5092084;28;20044;-88
2023/03/20 05:53:57;;;;;;;11.20;8.05;;;;;;;9.54;100.00;98416.75;5069479;28;20055;-87
2023/03/20 05:56:23;;;;;;;11.10;9.07;;;;;;;9.49;100.00;98403.41;5071164;28;20375;-87
2023/03/20 05:58:50;;;;;;;11.07;8.10;;;;;;;9.62;100.00;98427.09;5081129;28;20086;-87
2023/03/20 06:01:20;;;;;;;10.00;8.35;;;;;;;9.77;100.00;98430.47;5081041;28;20083;-87
2023/03/20 06:03:48;;;;;;;11.05;8.02;;;;;;;9.84;100.00;98433.97;5089953;28;20040;-87
2023/03/20 06:06:16;;;;;;;11.30;8.55;;;;;;;9.79;100.00;98427.69;5091350;28;20043;-87
2023/03/20 06:08:42;;;;;;;10.98;8.38;;;;;;;9.81;100.00;98442.19;5074508;28;20395;-87
2023/03/20 06:11:08;;;;;;;10.23;8.30;;;;;;;9.90;100.00;98450.78;5086399;28;20040;-86
2023/03/20 06:13:34;;;;;;;10.48;8.27;;;;;;;10.01;100.00;98457.31;5073179;28;20037;-88
2023/03/20 06:16:01;;;;;;;13.10;8.80;;;;;;;9.97;100.00;98443.78;5086080;28;20025;-87
2023/03/20 06:18:27;;;;;;;11.35;8.90;;;;;;;9.98;100.00;98431.47;5069737;28;20045;-87
2023/03/20 06:20:54;;;;;;;10.68;8.57;;;;;;;10.14;100.00;98446.97;5073916;28;20043;-88
2023/03/20 06:23:20;;;;;;;10.57;8.63;;;;;;;10.04;100.00;98428.94;5081713;28;20377;-88
2023/03/20 06:25:46;;;;;;;12.32;8.85;;;;;;;10.08;100.00;98432.00;5091711;28;20032;-88
2023/03/20 06:28:12;;;;;;;11.07;8.57;;;;;;;10.22;100.00;98449.44;5094721;28;20685;-88
2023/03/20 06:30:39;;;;;;;11.55;8.80;;;;;;;10.14;100.00;98433.84;5083529;28;20429;-86
2023/03/20 06:33:06;;;;;;;10.98;8.38;;;;;;;10.21;100.00;98432.09;5093616;28;20451;-87
2023/03/20 06:35:32;;;;;;;11.77;9.07;;;;;;;10.13;100.00;98424.34;5094516;28;20087;-87
2023/03/20 06:37:58;;;;;;;11.82;9.32;;;;;;;10.39;100.00;98450.84;5093956;28;20035;-87
2023/03/20 06:40:26;;;;;;;12.48;9.30;;;;;;;10.38;100.00;98443.16;5093397;28;20090;-87
2023/03/20 06:42:53;;;;;;;12.65;9.52;;;;;;;10.47;100.00;98462.19;5093632;28;20028;-87
2023/03/20 06:45:20;;;;;;;12.30;9.55;;;;;;;10.32;100.00;98446.53;5088539;28;20396;-87
2023/03/20 06:47:46;;;;;;;12.57;9.82;;;;;;;10.37;100.00;98446.75;5077828;28;20029;-87
2023/03/20 06:50:13;;;;;;;14.15;10.57;;;;;;;10.37;100.00;98447.56;5071584;28;20044;-87
2023/03/20 06:52:41;;;;;;;12.45;9.63;;;;;;;10.39;100.00;98450.84;5066609;28;20152;-85
2023/03/20 06:55:08;;;;;;;12.77;9.77;;;;;;;10.47;100.00;98456.94;5087228;28;20032;-87
2023/03/20 06:57:37;;;;;;;14.13;10.45;;;;;;;10.40;100.00;98434.09;5077520;28;20033;-86
2023/03/20 07:00:04;;;;;;;12.40;9.68;;;;;;;10.43;100.00;98432.91;5086651;28;20089;-87
2023/03/20 07:02:30;;;;;;;12.02;9.45;;;;;;;10.50;100.00;98432.97;5071409;28;20045;-87
2023/03/20 07:04:56;;;;;;;14.98;10.52;;;;;;;10.52;100.00;98442.25;5082753;28;20475;-87
2023/03/20 07:07:22;;;;;;;13.18;10.20;;;;;;;10.63;100.00;98446.19;5084021;28;20040;-87
2023/03/20 07:09:49;;;;;;;14.55;11.18;;;;;;;10.68;100.00;98455.09;5070793;28;20050;-87
2023/03/20 07:12:18;;;;;;;13.00;9.93;;;;;;;10.81;100.00;98450.94;5082945;28;20055;-87
2023/03/20 07:14:45;;;;;;;14.10;10.40;;;;;;;10.82;100.00;98449.94;5073163;28;20056;-87
2023/03/20 07:17:11;;;;;;;14.20;10.90;;;;;;;10.80;100.00;98439.63;5071113;28;20059;-87
2023/03/20 07:19:38;;;;;;;14.93;10.95;;;;;;;10.84;100.00;98455.78;5071246;28;20487;-87
2023/03/20 07:22:07;;;;;;;14.48;10.80;;;;;;;10.83;100.00;98439.22;5073118;28;20044;-87
2023/03/20 07:24:34;;;;;;;14.55;11.02;;;;;;;10.78;100.00;98436.38;5073687;28;20031;-87
2023/03/20 07:27:00;;;;;;;14.65;10.50;;;;;;;10.80;100.00;98437.00;5071439;28;20051;-86
2023/03/20 07:29:26;;;;;;;14.30;10.65;;;;;;;10.91;100.00;98440.88;5086975;28;20052;-87
2023/03/20 07:31:52;;;;;;;15.48;10.32;;;;;;;11.01;100.00;98443.16;5049881;28;20392;-87
2023/03/20 07:34:18;;;;;;;13.02;10.52;;;;;;;11.04;100.00;98454.09;5062010;28;20044;-87
2023/03/20 07:36:47;;;;;;;14.43;9.98;;;;;;;11.09;100.00;98450.88;5082000;28;20402;-88
2023/03/20 07:41:12;;;;;;;15.35;11.07;;;;;;;11.18;100.00;98454.97;5029526;28;20749;-85
2023/03/20 07:43:39;;;;;;;14.98;11.48;;;;;;;11.10;100.00;98455.97;5053285;28;20040;-85
2023/03/20 07:46:07;;;;;;;16.60;11.80;;;;;;;11.25;100.00;98461.06;5038671;28;20530;-85
2023/03/20 07:48:35;;;;;;;15.38;11.75;;;;;;;11.31;100.00;98470.78;5027007;28;20065;-84
2023/03/20 07:51:01;;;;;;;15.02;11.10;;;;;;;11.26;100.00;98439.06;4997020;27;20485;-84
2023/03/20 07:53:33;;;;;;;14.73;10.88;;;;;;;11.41;100.00;98459.94;5012617;28;20603;-84
2023/03/20 07:56:00;;;;;;;14.55;11.20;;;;;;;11.41;100.00;98454.69;5027762;28;20049;-85
2023/03/20 07:58:26;;;;;;;15.35;10.77;;;;;;;11.32;100.00;98456.66;5026818;28;20050;-84
2023/03/20 08:00:52;;;;;;;14.52;10.88;;;;;;;11.44;100.00;98470.03;5027823;28;20067;-85
2023/03/20 08:03:19;;;;;;;14.30;11.23;;;;;;;11.46;100.00;98465.41;5026933;28;20429;-84
2023/03/20 08:05:45;;;;;;;13.85;11.30;;;;;;;11.44;100.00;98455.09;5042892;28;20493;-84
2023/03/20 08:08:11;;;;;;;13.50;10.00;;;;;;;11.54;100.00;98462.59;5026295;28;20070;-85
2023/03/20 08:10:37;;;;;;;13.00;10.32;;;;;;;11.61;100.00;98475.78;5043048;28;20037;-85
2023/03/20 08:13:04;;;;;;;13.55;10.45;;;;;;;11.53;100.00;98450.50;5025562;28;20123;-85
2023/03/20 08:15:30;;;;;;;12.55;9.90;;;;;;;11.70;100.00;98464.09;5027395;28;20084;-86
2023/03/20 08:17:57;;;;;;;14.13;9.25;;;;;;;11.80;100.00;98477.66;5026129;28;20100;-85
2023/03/20 08:20:24;;;;;;;12.23;9.00;;;;;;;11.73;100.00;98463.69;5026917;28;20061;-85
2023/03/20 08:22:50;;;;;;;12.60;9.35;;;;;;;11.66;100.00;98463.66;5027466;28;20065;-85
2023/03/20 08:25:16;;;;;;;11.50;9.57;;;;;;;11.78;100.00;98471.78;5028352;28;20033;-85
2023/03/20 08:27:46;;;;;;;10.95;8.90;;;;;;;11.78;100.00;98462.09;5027177;28;20065;-85
2023/03/20 08:30:13;;;;;;;11.07;9.02;;;;;;;11.40;100.00;98459.13;5026378;28;20068;-85
2023/03/20 08:32:40;;;;;;;10.00;8.40;;;;;;;11.35;100.00;98456.28;5026801;28;20037;-84
2023/03/20 08:35:07;;;;;;;12.02;8.73;;;;;;;11.46;100.00;98463.59;5058473;28;20068;-84
2023/03/20 08:37:36;;;;;;;9.57;8.18;;;;;;;11.47;100.00;98470.47;5026702;28;20057;-84
2023/03/20 08:40:05;;;;;;;11.75;9.10;;;;;;;11.33;100.00;98458.28;5025617;28;20513;-85
2023/03/20 08:42:31;;;;;;;10.95;8.82;;;;;;;11.51;100.00;98461.19;5025809;28;20569;-85
2023/03/20 08:44:58;;;;;;;10.05;8.40;;;;;;;11.49;100.00;98455.31;5021845;28;20034;-85
2023/03/20 08:47:25;;;;;;;9.98;8.15;;;;;;;11.45;100.00;98461.94;5016037;28;20551;-85
2023/03/20 08:49:51;;;;;;;10.50;8.57;;;;;;;11.56;100.00;98463.22;5055376;28;20042;-85
2023/03/20 08:52:36;;;;;;;12.45;8.85;;;;;;;11.41;100.00;98459.94;5001849;28;20061;-86
2023/03/20 08:55:18;;;;;;;11.30;8.10;;;;;;;11.25;100.00;98467.13;5020251;28;20030;-86
2023/03/20 08:57:46;;;;;;;9.45;8.23;;;;;;;11.48;100.00;98461.56;5013010;28;20037;-85
2023/03/20 09:00:15;;;;;;;10.05;7.57;;;;;;;11.53;100.00;98459.19;5011572;28;20737;-85
2023/03/20 09:02:42;;;;;;;10.02;7.47;;;;;;;11.67;100.00;98464.47;5014328;28;20038;-85
2023/03/20 09:05:10;;;;;;;8.52;7.38;;;;;;;11.69;100.00;98478.22;5014008;28;20405;-85
2023/03/20 09:07:36;;;;;;;8.38;7.20;;;;;;;11.66;100.00;98470.75;5013571;28;20041;-86
2023/03/20 09:10:04;;;;;;;9.27;7.43;;;;;;;11.72;100.00;98488.34;5013327;28;20065;-86
2023/03/20 09:12:31;;;;;;;9.45;7.93;;;;;;;11.58;100.00;98490.13;5012281;28;20417;-85
2023/03/20 09:14:58;;;;;;;9.23;7.80;;;;;;;11.58;100.00;98478.81;5013841;28;20089;-86
2023/03/20 09:17:25;;;;;;;8.80;7.72;;;;;;;12.04;100.00;98487.63;5012594;28;20038;-85
2023/03/20 09:19:51;;;;;;;9.45;6.95;;;;;;;12.11;100.00;98481.59;5014114;28;20084;-85
2023/03/20 09:22:17;;;;;;;9.63;7.82;;;;;;;12.17;100.00;98492.09;5028922;28;20046;-85
2023/03/20 09:24:45;;;;;;;9.80;7.05;;;;;;;12.42;100.00;98484.47;5014260;28;20068;-86
2023/03/20 09:27:15;;;;;;;9.82;7.18;;;;;;;12.61;100.00;98482.84;4996140;28;20045;-87
2023/03/20 09:29:42;;;;;;;10.85;8.57;;;;;;;12.35;100.00;98490.72;4996138;28;20046;-88
2023/03/20 09:32:13;;;;;;;11.27;7.43;;;;;;;12.34;100.00;98492.53;5029277;28;20103;-86
2023/03/20 09:34:40;;;;;;;10.18;7.80;;;;;;;12.16;100.00;98494.94;5013969;28;20037;-86
2023/03/20 09:37:07;;;;;;;9.73;6.63;;;;;;;12.19;100.00;98491.94;5013024;28;20041;-88
2023/03/20 09:39:34;;;;;;;10.25;7.82;;;;;;;11.82;100.00;98475.69;5025016;28;20070;-87
2023/03/20 09:42:48;;;;;;;10.57;8.80;;;;;;;11.70;100.00;98490.38;5014963;28;20026;-88
2023/03/20 09:45:54;;;;;;;8.27;7.18;;;;;;;11.51;100.00;98508.47;5009992;28;20047;-88
2023/03/20 09:48:52;;;;;;;8.75;6.85;;;;;;;11.46;100.00;98492.50;5009234;28;20105;-88
2023/03/20 09:51:30;;;;;;;9.75;7.88;;;;;;;11.63;100.00;98492.13;4996331;28;20042;-87
2023/03/20 09:54:09;;;;;;;7.72;6.28;;;;;;;11.85;100.00;98483.16;4996003;28;20065;-86
2023/03/20 09:56:36;;;;;;;9.75;6.65;;;;;;;12.16;100.00;98505.47;5018399;28;20040;-86
2023/03/20 09:59:06;;;;;;;8.18;6.45;;;;;;;12.36;100.00;98500.25;5014374;28;20068;-86
2023/03/20 10:01:57;;;;;;;10.02;7.65;;;;;;;11.97;100.00;98497.34;5012890;28;20065;-87
2023/03/20 10:04:28;;;;;;;8.85;6.40;;;;;;;11.93;100.00;98498.72;5011127;28;20049;-86
2023/03/20 10:06:55;;;;;;;;;;;;;;;11.82;100.00;98501.16;5002361;28;20049;-87
2023/03/20 10:09:25;;;;;;;10.27;6.82;;;;;;;11.66;100.00;98503.06;5013778;28;19924;-86
2023/03/20 10:12:49;;;;;;;9.88;7.07;;;;;;;11.61;100.00;98496.78;5012757;28;20042;-85
2023/03/20 10:15:37;;;;;;;8.75;6.28;;;;;;;11.84;100.00;98507.00;4990017;28;20030;-87
2023/03/20 10:18:20;;;;;;;8.25;5.97;;;;;;;12.00;100.00;98475.13;5028195;28;20042;-87
2023/03/20 10:21:12;;;;;;;8.05;6.28;;;;;;;12.17;100.00;98499.19;5009541;28;20030;-86
2023/03/20 10:23:59;;;;;;;10.13;7.10;;;;;;;12.43;100.00;98496.59;5025820;28;20034;-87
2023/03/20 10:26:28;;;;;;;8.48;6.18;;;;;;;12.46;100.00;98490.94;5034170;28;20542;-87
2023/03/20 10:28:59;;;;;;;8.18;6.20;;;;;;;12.18;98.38;98496.38;5013423;28;20046;-88
2023/03/20 10:31:44;;;;;;;10.70;6.22;;;;;;;12.09;97.86;98502.00;5013003;28;20042;-88
2023/03/20 10:34:44;;;;;;;7.95;7.15;;;;;;;11.86;100.00;98505.78;5001019;28;20065;-88
2023/03/20 10:37:50;;;;;;;9.15;7.00;;;;;;;11.87;100.00;98501.34;5014446;28;20038;-88
2023/03/20 10:40:37;;;;;;;9.05;6.45;;;;;;;11.83;99.81;98500.13;4993137;28;20572;-88
2023/03/20 10:43:17;;;;;;;8.60;6.40;;;;;;;11.69;99.10;98479.03;4981995;28;20045;-88
2023/03/20 10:45:52;;;;;;;9.23;6.22;;;;;;;11.98;100.00;98488.44;4994112;28;20433;-88
2023/03/20 10:48:31;;;;;;;7.78;6.88;;;;;;;11.63;98.03;98486.88;4994984;28;20505;-90
2023/03/20 10:51:10;;;;;;;7.38;6.25;;;;;;;11.60;99.36;98505.69;4989479;28;20053;-88
2023/03/20 10:53:52;;;;;;;8.85;6.22;;;;;;;11.49;100.00;98486.84;4994657;28;20046;-87
2023/03/20 10:56:38;;;;;;;8.23;5.95;;;;;;;11.76;100.00;98506.16;4992412;28;20034;-88
2023/03/20 10:59:33;;;;;;;8.13;6.03;;;;;;;11.42;99.70;98482.56;4997508;28;20058;-88
2023/03/20 11:02:14;;;;;;;6.95;5.30;;;;;;;11.36;100.00;98478.91;5008136;28;20038;-87
2023/03/20 11:04:42;;;;;;;7.22;5.75;;;;;;;11.26;100.00;98462.69;4977968;28;20133;-90
2023/03/20 11:07:35;;;;;;;7.00;5.03;;;;;;;11.81;100.00;98492.44;5009006;28;20104;-87
2023/03/20 11:10:05;;;;;;;8.77;5.05;;;;;;;11.91;100.00;98495.50;5000340;28;20101;-87
2023/03/20 11:12:38;;;;;;;7.18;5.53;;;;;;;11.69;100.00;98496.59;5005672;28;20078;-89
2023/03/20 11:15:28;;;;;;;7.82;5.30;;;;;;;11.65;100.00;98492.78;5001172;28;20046;-87
2023/03/20 11:18:01;;;;;;;6.72;4.90;;;;;;;11.71;100.00;98481.47;5007487;28;20117;-86
2023/03/20 11:20:53;;;;;;;8.15;5.70;;;;;;;11.92;100.00;98489.22;4992271;28;20097;-87
2023/03/20 11:23:31;;;;;;;8.00;5.70;;;;;;;12.07;100.00;98488.28;4991706;28;20034;-86
2023/03/20 11:26:40;;;;;;;8.32;5.07;;;;;;;12.13;98.38;98487.47;5005786;28;20044;-87
2023/03/20 11:29:24;;;;;;;8.68;5.82;;;;;;;12.06;98.44;98492.72;4999282;28;20446;-87
2023/03/20 11:32:38;;;;;;;8.23;4.88;;;;;;;12.04;98.73;98485.00;4992962;28;20133;-87
2023/03/20 11:35:25;;;;;;;8.48;5.60;;;;;;;12.09;99.05;98491.50;5007868;28;20069;-88
2023/03/20 11:38:05;;;;;;;8.10;4.57;;;;;;;12.16;99.09;98476.53;4986551;28;20046;-87
2023/03/20 11:40:33;;;;;;;7.20;5.35;;;;;;;12.02;97.59;98452.88;5023456;28;20247;-90
2023/03/20 11:43:25;;;;;;;7.57;5.35;;;;;;;12.12;96.79;98473.53;5023834;28;20378;-89
2023/03/20 11:46:03;;;;;;;8.38;5.47;;;;;;;11.97;97.17;98484.19;4992517;28;20047;-89
2023/03/20 11:48:44;;;;;;;8.68;6.30;;;;;;;11.83;97.82;98490.44;4975368;28;20323;-91